sensor_id;sensor_type;location;lat;lon;timestamp;P1;durP1;ratioP1;P2;durP2;ratioP2
17384;SDS011;8810;48.680;8.894;2023-04-24T00:00:36;6.03;;;0.70;;
17384;SDS011;8810;48.680;8.894;2023-04-24T00:03:05;1.90;;;0.97;;
17384;SDS011;8810;48.680;8.894;2023-04-24T00:05:34;1.70;;;0.57;;
17384;SDS011;8810;48.680;8.894;2023-04-24T00:08:01;0.53;;;0.53;;
17384;SDS011;8810;48.680;8.894;2023-04-24T00:10:27;2.43;;;0.60;;
17384;SDS011;8810;48.680;8.894;2023-04-24T00:12:55;0.77;;;0.50;;
17384;SDS011;8810;48.680;8.894;2023-04-24T00:15:22;1.47;;;0.57;;
17384;SDS011;8810;48.680;8.894;2023-04-24T00:17:49;2.30;;;0.47;;
17384;SDS011;8810;48.680;8.894;2023-04-24T00:20:17;1.00;;;0.50;;
17384;SDS011;8810;48.680;8.894;2023-04-24T00:22:45;0.77;;;0.40;;
17384;SDS011;8810;48.680;8.894;2023-04-24T00:25:12;1.00;;;0.50;;
17384;SDS011;8810;48.680;8.894;2023-04-24T00:27:39;1.57;;;0.40;;
17384;SDS011;8810;48.680;8.894;2023-04-24T00:30:06;2.83;;;0.40;;
17384;SDS011;8810;48.680;8.894;2023-04-24T00:32:34;3.40;;;0.60;;
17384;SDS011;8810;48.680;8.894;2023-04-24T00:35:01;1.63;;;0.63;;
17384;SDS011;8810;48.680;8.894;2023-04-24T00:37:28;1.23;;;0.60;;
17384;SDS011;8810;48.680;8.894;2023-04-24T00:39:56;1.83;;;0.50;;
17384;SDS011;8810;48.680;8.894;2023-04-24T00:42:23;1.27;;;0.70;;
17384;SDS011;8810;48.680;8.894;2023-04-24T00:44:50;1.50;;;0.70;;
17384;SDS011;8810;48.680;8.894;2023-04-24T00:47:17;1.27;;;0.50;;
17384;SDS011;8810;48.680;8.894;2023-04-24T00:49:46;1.87;;;0.60;;
17384;SDS011;8810;48.680;8.894;2023-04-24T00:52:13;1.53;;;0.53;;
17384;SDS011;8810;48.680;8.894;2023-04-24T00:54:42;0.70;;;0.60;;
17384;SDS011;8810;48.680;8.894;2023-04-24T00:57:11;2.67;;;0.70;;
17384;SDS011;8810;48.680;8.894;2023-04-24T00:59:39;0.50;;;0.50;;
17384;SDS011;8810;48.680;8.894;2023-04-24T01:02:07;4.47;;;0.60;;
17384;SDS011;8810;48.680;8.894;2023-04-24T01:04:35;1.37;;;0.60;;
17384;SDS011;8810;48.680;8.894;2023-04-24T01:07:03;1.00;;;0.60;;
17384;SDS011;8810;48.680;8.894;2023-04-24T01:09:34;1.87;;;0.57;;
17384;SDS011;8810;48.680;8.894;2023-04-24T01:12:02;0.60;;;0.40;;
17384;SDS011;8810;48.680;8.894;2023-04-24T01:14:30;1.37;;;0.50;;
17384;SDS011;8810;48.680;8.894;2023-04-24T01:16:57;0.93;;;0.60;;
17384;SDS011;8810;48.680;8.894;2023-04-24T01:19:25;1.23;;;0.60;;
17384;SDS011;8810;48.680;8.894;2023-04-24T01:21:53;1.63;;;0.90;;
17384;SDS011;8810;48.680;8.894;2023-04-24T01:24:25;1.63;;;0.70;;
17384;SDS011;8810;48.680;8.894;2023-04-24T01:26:52;3.67;;;0.70;;
17384;SDS011;8810;48.680;8.894;2023-04-24T01:29:20;1.33;;;0.77;;
17384;SDS011;8810;48.680;8.894;2023-04-24T01:31:47;0.83;;;0.60;;
17384;SDS011;8810;48.680;8.894;2023-04-24T01:34:14;0.97;;;0.70;;
17384;SDS011;8810;48.680;8.894;2023-04-24T01:36:42;2.00;;;0.93;;
17384;SDS011;8810;48.680;8.894;2023-04-24T01:39:11;3.67;;;0.70;;
17384;SDS011;8810;48.680;8.894;2023-04-24T01:41:39;1.37;;;0.60;;
17384;SDS011;8810;48.680;8.894;2023-04-24T01:44:06;3.27;;;0.67;;
17384;SDS011;8810;48.680;8.894;2023-04-24T01:46:33;1.10;;;0.60;;
17384;SDS011;8810;48.680;8.894;2023-04-24T01:49:01;2.63;;;0.57;;
17384;SDS011;8810;48.680;8.894;2023-04-24T01:51:28;1.77;;;0.87;;
17384;SDS011;8810;48.680;8.894;2023-04-24T01:53:55;1.03;;;0.70;;
17384;SDS011;8810;48.680;8.894;2023-04-24T01:56:22;2.30;;;0.50;;
17384;SDS011;8810;48.680;8.894;2023-04-24T01:58:50;1.73;;;0.67;;
17384;SDS011;8810;48.680;8.894;2023-04-24T02:01:20;2.37;;;0.77;;
17384;SDS011;8810;48.680;8.894;2023-04-24T02:03:47;2.40;;;0.90;;
17384;SDS011;8810;48.680;8.894;2023-04-24T02:06:14;0.90;;;0.80;;
17384;SDS011;8810;48.680;8.894;2023-04-24T02:08:41;1.47;;;0.80;;
17384;SDS011;8810;48.680;8.894;2023-04-24T02:11:08;1.07;;;0.87;;
17384;SDS011;8810;48.680;8.894;2023-04-24T02:13:35;2.00;;;0.70;;
17384;SDS011;8810;48.680;8.894;2023-04-24T02:16:03;1.03;;;0.90;;
17384;SDS011;8810;48.680;8.894;2023-04-24T02:18:30;1.80;;;0.80;;
17384;SDS011;8810;48.680;8.894;2023-04-24T02:20:57;1.70;;;0.90;;
17384;SDS011;8810;48.680;8.894;2023-04-24T02:23:24;1.73;;;0.80;;
17384;SDS011;8810;48.680;8.894;2023-04-24T02:25:52;1.60;;;0.73;;
17384;SDS011;8810;48.680;8.894;2023-04-24T02:28:19;1.93;;;0.90;;
17384;SDS011;8810;48.680;8.894;2023-04-24T02:30:46;2.10;;;0.80;;
17384;SDS011;8810;48.680;8.894;2023-04-24T02:33:14;4.43;;;0.73;;
17384;SDS011;8810;48.680;8.894;2023-04-24T02:35:41;3.43;;;0.70;;
17384;SDS011;8810;48.680;8.894;2023-04-24T02:38:08;1.83;;;0.97;;
17384;SDS011;8810;48.680;8.894;2023-04-24T02:40:34;1.93;;;1.00;;
17384;SDS011;8810;48.680;8.894;2023-04-24T02:43:01;1.00;;;0.90;;
17384;SDS011;8810;48.680;8.894;2023-04-24T02:45:28;2.83;;;0.80;;
17384;SDS011;8810;48.680;8.894;2023-04-24T02:47:55;2.00;;;1.03;;
17384;SDS011;8810;48.680;8.894;2023-04-24T02:50:23;1.63;;;1.00;;
17384;SDS011;8810;48.680;8.894;2023-04-24T02:52:50;8.83;;;1.50;;
17384;SDS011;8810;48.680;8.894;2023-04-24T02:55:17;11.57;;;6.43;;
17384;SDS011;8810;48.680;8.894;2023-04-24T02:57:44;3.90;;;2.97;;
17384;SDS011;8810;48.680;8.894;2023-04-24T03:00:11;2.60;;;1.50;;
17384;SDS011;8810;48.680;8.894;2023-04-24T03:02:39;1.70;;;1.30;;
17384;SDS011;8810;48.680;8.894;2023-04-24T03:05:06;4.53;;;2.30;;
17384;SDS011;8810;48.680;8.894;2023-04-24T03:07:35;5.13;;;1.07;;
17384;SDS011;8810;48.680;8.894;2023-04-24T03:10:02;4.67;;;1.27;;
17384;SDS011;8810;48.680;8.894;2023-04-24T03:12:29;5.97;;;3.23;;
17384;SDS011;8810;48.680;8.894;2023-04-24T03:14:56;2.33;;;1.50;;
17384;SDS011;8810;48.680;8.894;2023-04-24T03:17:23;2.50;;;1.70;;
17384;SDS011;8810;48.680;8.894;2023-04-24T03:19:50;4.47;;;1.70;;
17384;SDS011;8810;48.680;8.894;2023-04-24T03:22:17;2.97;;;1.27;;
17384;SDS011;8810;48.680;8.894;2023-04-24T03:24:45;2.07;;;1.30;;
17384;SDS011;8810;48.680;8.894;2023-04-24T03:27:12;3.73;;;1.50;;
17384;SDS011;8810;48.680;8.894;2023-04-24T03:29:39;1.87;;;1.13;;
17384;SDS011;8810;48.680;8.894;2023-04-24T03:32:06;3.77;;;1.60;;
17384;SDS011;8810;48.680;8.894;2023-04-24T03:34:33;2.03;;;1.60;;
17384;SDS011;8810;48.680;8.894;2023-04-24T03:37:00;3.13;;;1.40;;
17384;SDS011;8810;48.680;8.894;2023-04-24T03:39:27;2.50;;;1.00;;
17384;SDS011;8810;48.680;8.894;2023-04-24T03:41:55;1.87;;;1.07;;
17384;SDS011;8810;48.680;8.894;2023-04-24T03:44:22;3.57;;;1.17;;
17384;SDS011;8810;48.680;8.894;2023-04-24T03:46:48;4.03;;;1.70;;
17384;SDS011;8810;48.680;8.894;2023-04-24T03:49:15;4.17;;;1.80;;
17384;SDS011;8810;48.680;8.894;2023-04-24T03:51:42;2.60;;;1.07;;
17384;SDS011;8810;48.680;8.894;2023-04-24T03:54:09;11.00;;;6.57;;
17384;SDS011;8810;48.680;8.894;2023-04-24T03:56:36;2.90;;;1.13;;
17384;SDS011;8810;48.680;8.894;2023-04-24T03:59:04;2.03;;;1.10;;
17384;SDS011;8810;48.680;8.894;2023-04-24T04:01:31;2.00;;;0.80;;
17384;SDS011;8810;48.680;8.894;2023-04-24T04:04:01;2.60;;;0.80;;
17384;SDS011;8810;48.680;8.894;2023-04-24T04:06:28;1.87;;;0.90;;
17384;SDS011;8810;48.680;8.894;2023-04-24T04:08:55;1.90;;;0.70;;
17384;SDS011;8810;48.680;8.894;2023-04-24T04:11:23;2.03;;;0.73;;
17384;SDS011;8810;48.680;8.894;2023-04-24T04:13:50;3.53;;;0.80;;
17384;SDS011;8810;48.680;8.894;2023-04-24T04:16:18;0.70;;;0.60;;
17384;SDS011;8810;48.680;8.894;2023-04-24T04:18:45;3.23;;;1.10;;
17384;SDS011;8810;48.680;8.894;2023-04-24T04:21:12;1.80;;;0.80;;
17384;SDS011;8810;48.680;8.894;2023-04-24T04:23:39;0.80;;;0.80;;
17384;SDS011;8810;48.680;8.894;2023-04-24T04:26:06;1.97;;;1.10;;
17384;SDS011;8810;48.680;8.894;2023-04-24T04:28:34;1.73;;;1.00;;
17384;SDS011;8810;48.680;8.894;2023-04-24T04:31:01;1.50;;;1.20;;
17384;SDS011;8810;48.680;8.894;2023-04-24T04:33:29;3.50;;;1.33;;
17384;SDS011;8810;48.680;8.894;2023-04-24T04:35:56;3.20;;;1.30;;
17384;SDS011;8810;48.680;8.894;2023-04-24T04:38:23;1.43;;;1.30;;
17384;SDS011;8810;48.680;8.894;2023-04-24T04:40:51;1.37;;;1.23;;
17384;SDS011;8810;48.680;8.894;2023-04-24T04:43:18;1.80;;;1.40;;
17384;SDS011;8810;48.680;8.894;2023-04-24T04:45:45;3.57;;;1.57;;
17384;SDS011;8810;48.680;8.894;2023-04-24T04:48:13;1.60;;;1.10;;
17384;SDS011;8810;48.680;8.894;2023-04-24T04:50:44;1.80;;;1.23;;
17384;SDS011;8810;48.680;8.894;2023-04-24T04:53:11;4.53;;;1.80;;
17384;SDS011;8810;48.680;8.894;2023-04-24T04:55:38;1.93;;;1.70;;
17384;SDS011;8810;48.680;8.894;2023-04-24T04:58:05;1.60;;;1.30;;
17384;SDS011;8810;48.680;8.894;2023-04-24T05:00:31;2.27;;;1.50;;
17384;SDS011;8810;48.680;8.894;2023-04-24T05:03:00;3.80;;;1.57;;
17384;SDS011;8810;48.680;8.894;2023-04-24T05:05:27;2.87;;;1.57;;
17384;SDS011;8810;48.680;8.894;2023-04-24T05:07:56;3.33;;;2.00;;
17384;SDS011;8810;48.680;8.894;2023-04-24T05:10:23;3.53;;;1.87;;
17384;SDS011;8810;48.680;8.894;2023-04-24T05:12:50;5.30;;;2.50;;
17384;SDS011;8810;48.680;8.894;2023-04-24T05:15:16;3.63;;;2.20;;
17384;SDS011;8810;48.680;8.894;2023-04-24T05:17:43;2.50;;;2.23;;
17384;SDS011;8810;48.680;8.894;2023-04-24T05:20:10;3.80;;;1.87;;
17384;SDS011;8810;48.680;8.894;2023-04-24T05:22:37;3.80;;;1.70;;
17384;SDS011;8810;48.680;8.894;2023-04-24T05:25:06;3.47;;;1.80;;
17384;SDS011;8810;48.680;8.894;2023-04-24T05:27:33;2.17;;;1.70;;
17384;SDS011;8810;48.680;8.894;2023-04-24T05:30:00;2.97;;;2.17;;
17384;SDS011;8810;48.680;8.894;2023-04-24T05:32:27;2.93;;;2.20;;
17384;SDS011;8810;48.680;8.894;2023-04-24T05:34:54;3.10;;;1.97;;
17384;SDS011;8810;48.680;8.894;2023-04-24T05:37:21;3.60;;;2.17;;
17384;SDS011;8810;48.680;8.894;2023-04-24T05:39:48;4.33;;;2.10;;
17384;SDS011;8810;48.680;8.894;2023-04-24T05:42:16;23.30;;;4.07;;
17384;SDS011;8810;48.680;8.894;2023-04-24T05:44:43;31.70;;;5.10;;
17384;SDS011;8810;48.680;8.894;2023-04-24T05:47:10;13.87;;;2.90;;
17384;SDS011;8810;48.680;8.894;2023-04-24T05:49:37;11.13;;;3.70;;
17384;SDS011;8810;48.680;8.894;2023-04-24T05:52:03;6.33;;;3.13;;
17384;SDS011;8810;48.680;8.894;2023-04-24T05:54:33;4.40;;;3.00;;
17384;SDS011;8810;48.680;8.894;2023-04-24T05:57:00;4.67;;;2.73;;
17384;SDS011;8810;48.680;8.894;2023-04-24T05:59:33;9.53;;;4.17;;
17384;SDS011;8810;48.680;8.894;2023-04-24T06:02:01;13.03;;;7.33;;
17384;SDS011;8810;48.680;8.894;2023-04-24T06:04:28;10.63;;;6.37;;
17384;SDS011;8810;48.680;8.894;2023-04-24T06:06:55;8.63;;;4.60;;
17384;SDS011;8810;48.680;8.894;2023-04-24T06:09:22;4.03;;;2.70;;
17384;SDS011;8810;48.680;8.894;2023-04-24T06:11:48;3.97;;;2.13;;
17384;SDS011;8810;48.680;8.894;2023-04-24T06:14:17;2.33;;;1.53;;
17384;SDS011;8810;48.680;8.894;2023-04-24T06:16:46;2.47;;;1.73;;
17384;SDS011;8810;48.680;8.894;2023-04-24T06:19:12;2.90;;;1.70;;
17384;SDS011;8810;48.680;8.894;2023-04-24T06:21:39;2.53;;;1.83;;
17384;SDS011;8810;48.680;8.894;2023-04-24T06:24:06;1.77;;;1.43;;
17384;SDS011;8810;48.680;8.894;2023-04-24T06:26:33;2.10;;;1.50;;
17384;SDS011;8810;48.680;8.894;2023-04-24T06:29:00;2.80;;;1.53;;
17384;SDS011;8810;48.680;8.894;2023-04-24T06:31:27;3.27;;;1.30;;
17384;SDS011;8810;48.680;8.894;2023-04-24T06:33:55;2.20;;;1.60;;
17384;SDS011;8810;48.680;8.894;2023-04-24T06:36:22;1.53;;;1.40;;
17384;SDS011;8810;48.680;8.894;2023-04-24T06:38:49;1.80;;;1.40;;
17384;SDS011;8810;48.680;8.894;2023-04-24T06:41:16;2.67;;;1.70;;
17384;SDS011;8810;48.680;8.894;2023-04-24T06:43:43;3.50;;;1.90;;
17384;SDS011;8810;48.680;8.894;2023-04-24T06:46:10;3.93;;;1.60;;
17384;SDS011;8810;48.680;8.894;2023-04-24T06:48:37;3.03;;;1.60;;
17384;SDS011;8810;48.680;8.894;2023-04-24T06:51:06;2.10;;;1.60;;
17384;SDS011;8810;48.680;8.894;2023-04-24T06:53:33;3.33;;;1.60;;
17384;SDS011;8810;48.680;8.894;2023-04-24T06:56:00;1.57;;;1.27;;
17384;SDS011;8810;48.680;8.894;2023-04-24T06:58:27;4.37;;;1.50;;
17384;SDS011;8810;48.680;8.894;2023-04-24T07:00:54;1.87;;;1.37;;
17384;SDS011;8810;48.680;8.894;2023-04-24T07:03:20;3.53;;;1.43;;
17384;SDS011;8810;48.680;8.894;2023-04-24T07:05:47;1.73;;;1.23;;
17384;SDS011;8810;48.680;8.894;2023-04-24T07:08:16;1.37;;;1.00;;
17384;SDS011;8810;48.680;8.894;2023-04-24T07:10:44;1.20;;;1.10;;
17384;SDS011;8810;48.680;8.894;2023-04-24T07:13:11;1.30;;;1.20;;
17384;SDS011;8810;48.680;8.894;2023-04-24T07:15:37;1.60;;;1.00;;
17384;SDS011;8810;48.680;8.894;2023-04-24T07:18:06;2.20;;;1.13;;
17384;SDS011;8810;48.680;8.894;2023-04-24T07:20:33;1.10;;;1.00;;
17384;SDS011;8810;48.680;8.894;2023-04-24T07:23:00;1.27;;;1.10;;
17384;SDS011;8810;48.680;8.894;2023-04-24T07:25:28;1.63;;;0.80;;
17384;SDS011;8810;48.680;8.894;2023-04-24T07:27:56;1.17;;;0.90;;
17384;SDS011;8810;48.680;8.894;2023-04-24T07:30:23;1.60;;;1.10;;
17384;SDS011;8810;48.680;8.894;2023-04-24T07:32:50;2.10;;;1.10;;
17384;SDS011;8810;48.680;8.894;2023-04-24T07:35:17;1.43;;;1.10;;
17384;SDS011;8810;48.680;8.894;2023-04-24T07:37:45;2.57;;;1.20;;
17384;SDS011;8810;48.680;8.894;2023-04-24T07:40:12;2.27;;;0.90;;
17384;SDS011;8810;48.680;8.894;2023-04-24T07:42:40;3.67;;;1.20;;
17384;SDS011;8810;48.680;8.894;2023-04-24T07:45:08;1.43;;;1.00;;
17384;SDS011;8810;48.680;8.894;2023-04-24T07:47:35;2.43;;;1.07;;
17384;SDS011;8810;48.680;8.894;2023-04-24T07:50:05;1.13;;;0.90;;
17384;SDS011;8810;48.680;8.894;2023-04-24T07:52:32;3.40;;;1.17;;
17384;SDS011;8810;48.680;8.894;2023-04-24T07:54:59;1.20;;;0.97;;
17384;SDS011;8810;48.680;8.894;2023-04-24T07:57:27;1.27;;;0.90;;
17384;SDS011;8810;48.680;8.894;2023-04-24T07:59:55;3.30;;;0.90;;
17384;SDS011;8810;48.680;8.894;2023-04-24T08:02:22;1.10;;;1.00;;
17384;SDS011;8810;48.680;8.894;2023-04-24T08:04:51;1.83;;;1.20;;
17384;SDS011;8810;48.680;8.894;2023-04-24T08:07:19;1.53;;;1.10;;
17384;SDS011;8810;48.680;8.894;2023-04-24T08:09:46;1.83;;;1.20;;
17384;SDS011;8810;48.680;8.894;2023-04-24T08:12:13;1.00;;;0.90;;
17384;SDS011;8810;48.680;8.894;2023-04-24T08:14:40;2.83;;;1.10;;
17384;SDS011;8810;48.680;8.894;2023-04-24T08:17:08;2.13;;;1.30;;
17384;SDS011;8810;48.680;8.894;2023-04-24T08:19:35;1.40;;;1.10;;
17384;SDS011;8810;48.680;8.894;2023-04-24T08:22:02;2.60;;;1.07;;
17384;SDS011;8810;48.680;8.894;2023-04-24T08:24:29;1.70;;;1.20;;
17384;SDS011;8810;48.680;8.894;2023-04-24T08:26:56;1.87;;;1.00;;
17384;SDS011;8810;48.680;8.894;2023-04-24T08:29:23;1.93;;;1.13;;
17384;SDS011;8810;48.680;8.894;2023-04-24T08:31:50;2.30;;;1.33;;
17384;SDS011;8810;48.680;8.894;2023-04-24T08:34:20;2.33;;;1.07;;
17384;SDS011;8810;48.680;8.894;2023-04-24T08:36:47;3.93;;;1.40;;
17384;SDS011;8810;48.680;8.894;2023-04-24T08:39:15;3.13;;;1.20;;
17384;SDS011;8810;48.680;8.894;2023-04-24T08:41:43;4.10;;;1.33;;
17384;SDS011;8810;48.680;8.894;2023-04-24T08:44:11;2.83;;;1.13;;
17384;SDS011;8810;48.680;8.894;2023-04-24T08:46:39;1.60;;;1.07;;
17384;SDS011;8810;48.680;8.894;2023-04-24T08:49:07;2.80;;;1.70;;
17384;SDS011;8810;48.680;8.894;2023-04-24T08:51:35;2.10;;;1.40;;
17384;SDS011;8810;48.680;8.894;2023-04-24T08:54:03;2.03;;;1.30;;
17384;SDS011;8810;48.680;8.894;2023-04-24T08:56:32;2.30;;;1.30;;
17384;SDS011;8810;48.680;8.894;2023-04-24T10:16:40;2.67;;;0.80;;
17384;SDS011;8810;48.680;8.894;2023-04-24T10:19:09;2.20;;;0.80;;
17384;SDS011;8810;48.680;8.894;2023-04-24T10:21:38;2.10;;;0.77;;
17384;SDS011;8810;48.680;8.894;2023-04-24T10:24:07;1.53;;;0.70;;
17384;SDS011;8810;48.680;8.894;2023-04-24T10:26:35;3.70;;;1.17;;
17384;SDS011;8810;48.680;8.894;2023-04-24T10:29:02;0.90;;;0.50;;
17384;SDS011;8810;48.680;8.894;2023-04-24T10:31:34;2.47;;;0.60;;
17384;SDS011;8810;48.680;8.894;2023-04-24T10:34:04;1.23;;;0.67;;
17384;SDS011;8810;48.680;8.894;2023-04-24T10:36:32;2.10;;;0.67;;
17384;SDS011;8810;48.680;8.894;2023-04-24T10:39:01;1.10;;;0.70;;
17384;SDS011;8810;48.680;8.894;2023-04-24T10:41:30;0.67;;;0.60;;
17384;SDS011;8810;48.680;8.894;2023-04-24T10:44:06;0.67;;;0.60;;
17384;SDS011;8810;48.680;8.894;2023-04-24T10:46:35;0.77;;;0.60;;
17384;SDS011;8810;48.680;8.894;2023-04-24T10:49:04;1.17;;;0.60;;
17384;SDS011;8810;48.680;8.894;2023-04-24T10:51:47;0.87;;;0.60;;
17384;SDS011;8810;48.680;8.894;2023-04-24T10:54:25;1.67;;;0.97;;
17384;SDS011;8810;48.680;8.894;2023-04-24T10:56:53;1.50;;;0.90;;
17384;SDS011;8810;48.680;8.894;2023-04-24T10:59:40;1.30;;;0.97;;
17384;SDS011;8810;48.680;8.894;2023-04-24T11:02:07;0.80;;;0.80;;
17384;SDS011;8810;48.680;8.894;2023-04-24T11:04:36;0.90;;;0.80;;
17384;SDS011;8810;48.680;8.894;2023-04-24T11:07:03;1.67;;;1.00;;
17384;SDS011;8810;48.680;8.894;2023-04-24T11:09:30;1.23;;;0.80;;
17384;SDS011;8810;48.680;8.894;2023-04-24T11:12:03;2.60;;;1.00;;
17384;SDS011;8810;48.680;8.894;2023-04-24T11:17:30;1.70;;;0.60;;
17384;SDS011;8810;48.680;8.894;2023-04-24T11:20:04;0.90;;;0.73;;
17384;SDS011;8810;48.680;8.894;2023-04-24T11:22:33;3.30;;;0.90;;
17384;SDS011;8810;48.680;8.894;2023-04-24T11:25:01;0.70;;;0.60;;
17384;SDS011;8810;48.680;8.894;2023-04-24T11:27:29;1.13;;;0.80;;
17384;SDS011;8810;48.680;8.894;2023-04-24T11:30:01;2.77;;;0.83;;
17384;SDS011;8810;48.680;8.894;2023-04-24T11:32:29;1.63;;;0.80;;
17384;SDS011;8810;48.680;8.894;2023-04-24T11:35:01;0.97;;;0.83;;
17384;SDS011;8810;48.680;8.894;2023-04-24T11:37:33;1.77;;;0.83;;
17384;SDS011;8810;48.680;8.894;2023-04-24T11:40:01;1.63;;;0.93;;
17384;SDS011;8810;48.680;8.894;2023-04-24T11:42:33;1.20;;;0.80;;
17384;SDS011;8810;48.680;8.894;2023-04-24T11:45:00;1.20;;;1.00;;
17384;SDS011;8810;48.680;8.894;2023-04-24T11:47:28;2.60;;;1.10;;
17384;SDS011;8810;48.680;8.894;2023-04-24T11:49:55;1.83;;;1.00;;
17384;SDS011;8810;48.680;8.894;2023-04-24T11:52:22;3.90;;;0.90;;
17384;SDS011;8810;48.680;8.894;2023-04-24T11:54:50;1.67;;;1.00;;
17384;SDS011;8810;48.680;8.894;2023-04-24T11:57:18;4.90;;;1.00;;
17384;SDS011;8810;48.680;8.894;2023-04-24T11:59:46;2.70;;;1.00;;
17384;SDS011;8810;48.680;8.894;2023-04-24T12:02:20;1.27;;;1.10;;
17384;SDS011;8810;48.680;8.894;2023-04-24T12:04:47;1.10;;;1.00;;
17384;SDS011;8810;48.680;8.894;2023-04-24T12:07:14;1.50;;;1.00;;
17384;SDS011;8810;48.680;8.894;2023-04-24T12:09:42;1.23;;;0.97;;
17384;SDS011;8810;48.680;8.894;2023-04-24T12:12:12;1.50;;;1.00;;
17384;SDS011;8810;48.680;8.894;2023-04-24T12:17:25;1.73;;;0.80;;
17384;SDS011;8810;48.680;8.894;2023-04-24T12:19:56;0.70;;;0.70;;
17384;SDS011;8810;48.680;8.894;2023-04-24T12:22:24;4.10;;;0.87;;
17384;SDS011;8810;48.680;8.894;2023-04-24T12:24:58;1.97;;;0.90;;
17384;SDS011;8810;48.680;8.894;2023-04-24T12:27:28;1.50;;;0.80;;
17384;SDS011;8810;48.680;8.894;2023-04-24T12:29:57;1.00;;;0.70;;
17384;SDS011;8810;48.680;8.894;2023-04-24T12:32:24;1.37;;;0.70;;
17384;SDS011;8810;48.680;8.894;2023-04-24T12:34:51;1.00;;;0.80;;
17384;SDS011;8810;48.680;8.894;2023-04-24T12:37:19;0.87;;;0.70;;
17384;SDS011;8810;48.680;8.894;2023-04-24T12:40:01;1.10;;;0.90;;
17384;SDS011;8810;48.680;8.894;2023-04-24T12:42:32;1.60;;;0.83;;
17384;SDS011;8810;48.680;8.894;2023-04-24T12:45:00;0.77;;;0.70;;
17384;SDS011;8810;48.680;8.894;2023-04-24T12:47:29;1.30;;;0.87;;
17384;SDS011;8810;48.680;8.894;2023-04-24T12:49:56;1.10;;;0.87;;
17384;SDS011;8810;48.680;8.894;2023-04-24T12:52:23;1.97;;;0.87;;
17384;SDS011;8810;48.680;8.894;2023-04-24T12:54:52;2.20;;;1.10;;
17384;SDS011;8810;48.680;8.894;2023-04-24T12:57:20;1.63;;;1.13;;
17384;SDS011;8810;48.680;8.894;2023-04-24T12:59:49;1.30;;;0.73;;
17384;SDS011;8810;48.680;8.894;2023-04-24T13:02:16;1.47;;;1.20;;
17384;SDS011;8810;48.680;8.894;2023-04-24T13:04:43;4.53;;;1.20;;
17384;SDS011;8810;48.680;8.894;2023-04-24T13:07:11;1.17;;;1.07;;
17384;SDS011;8810;48.680;8.894;2023-04-24T13:09:39;1.33;;;1.00;;
17384;SDS011;8810;48.680;8.894;2023-04-24T13:12:06;1.10;;;1.00;;
17384;SDS011;8810;48.680;8.894;2023-04-24T13:14:33;3.50;;;1.47;;
17384;SDS011;8810;48.680;8.894;2023-04-24T13:17:01;2.17;;;1.27;;
17384;SDS011;8810;48.680;8.894;2023-04-24T13:19:29;1.80;;;1.50;;
17384;SDS011;8810;48.680;8.894;2023-04-24T13:21:56;2.83;;;1.17;;
17384;SDS011;8810;48.680;8.894;2023-04-24T13:24:24;4.07;;;1.20;;
17384;SDS011;8810;48.680;8.894;2023-04-24T13:26:51;2.03;;;1.30;;
17384;SDS011;8810;48.680;8.894;2023-04-24T13:29:18;1.67;;;1.13;;
17384;SDS011;8810;48.680;8.894;2023-04-24T13:31:45;1.37;;;1.10;;
17384;SDS011;8810;48.680;8.894;2023-04-24T13:34:14;2.80;;;1.43;;
17384;SDS011;8810;48.680;8.894;2023-04-24T13:36:41;2.27;;;1.40;;
17384;SDS011;8810;48.680;8.894;2023-04-24T13:39:08;1.60;;;1.30;;
17384;SDS011;8810;48.680;8.894;2023-04-24T13:41:35;2.03;;;1.30;;
17384;SDS011;8810;48.680;8.894;2023-04-24T13:44:02;2.47;;;0.97;;
17384;SDS011;8810;48.680;8.894;2023-04-24T13:46:29;2.93;;;1.20;;
17384;SDS011;8810;48.680;8.894;2023-04-24T13:48:57;9.53;;;1.57;;
17384;SDS011;8810;48.680;8.894;2023-04-24T13:51:26;2.63;;;1.80;;
17384;SDS011;8810;48.680;8.894;2023-04-24T13:53:53;3.70;;;1.50;;
17384;SDS011;8810;48.680;8.894;2023-04-24T13:56:20;1.53;;;1.23;;
17384;SDS011;8810;48.680;8.894;2023-04-24T13:58:47;3.57;;;1.30;;
17384;SDS011;8810;48.680;8.894;2023-04-24T14:01:14;4.77;;;1.60;;
17384;SDS011;8810;48.680;8.894;2023-04-24T14:03:42;4.53;;;1.73;;
17384;SDS011;8810;48.680;8.894;2023-04-24T14:06:24;48.37;;;5.03;;
17384;SDS011;8810;48.680;8.894;2023-04-24T14:09:06;3.97;;;1.40;;
17384;SDS011;8810;48.680;8.894;2023-04-24T14:11:33;8.47;;;2.00;;
17384;SDS011;8810;48.680;8.894;2023-04-24T14:14:01;1.50;;;1.40;;
17384;SDS011;8810;48.680;8.894;2023-04-24T14:16:31;2.87;;;1.80;;
17384;SDS011;8810;48.680;8.894;2023-04-24T14:18:58;2.63;;;1.40;;
17384;SDS011;8810;48.680;8.894;2023-04-24T14:27:46;2.50;;;1.20;;
17384;SDS011;8810;48.680;8.894;2023-04-24T14:30:13;2.07;;;1.40;;
17384;SDS011;8810;48.680;8.894;2023-04-24T14:32:41;2.00;;;1.20;;
17384;SDS011;8810;48.680;8.894;2023-04-24T14:35:08;1.70;;;1.20;;
17384;SDS011;8810;48.680;8.894;2023-04-24T14:37:36;2.27;;;1.80;;
17384;SDS011;8810;48.680;8.894;2023-04-24T14:40:06;4.23;;;1.33;;
17384;SDS011;8810;48.680;8.894;2023-04-24T14:42:34;1.50;;;1.20;;
17384;SDS011;8810;48.680;8.894;2023-04-24T14:45:01;2.27;;;1.37;;
17384;SDS011;8810;48.680;8.894;2023-04-24T14:47:28;1.60;;;1.30;;
17384;SDS011;8810;48.680;8.894;2023-04-24T14:49:55;3.97;;;1.40;;
17384;SDS011;8810;48.680;8.894;2023-04-24T14:52:22;2.83;;;1.30;;
17384;SDS011;8810;48.680;8.894;2023-04-24T14:54:50;1.80;;;1.30;;
17384;SDS011;8810;48.680;8.894;2023-04-24T14:57:17;3.13;;;1.47;;
17384;SDS011;8810;48.680;8.894;2023-04-24T14:59:44;3.63;;;1.30;;
17384;SDS011;8810;48.680;8.894;2023-04-24T15:02:11;2.43;;;1.10;;
17384;SDS011;8810;48.680;8.894;2023-04-24T15:04:38;2.00;;;1.13;;
17384;SDS011;8810;48.680;8.894;2023-04-24T15:07:05;1.90;;;0.93;;
17384;SDS011;8810;48.680;8.894;2023-04-24T15:09:32;2.53;;;1.33;;
17384;SDS011;8810;48.680;8.894;2023-04-24T15:12:00;1.87;;;1.20;;
17384;SDS011;8810;48.680;8.894;2023-04-24T15:14:28;2.33;;;1.23;;
17384;SDS011;8810;48.680;8.894;2023-04-24T15:16:55;2.37;;;1.13;;
17384;SDS011;8810;48.680;8.894;2023-04-24T15:19:22;2.40;;;1.50;;
17384;SDS011;8810;48.680;8.894;2023-04-24T15:21:48;1.70;;;1.20;;
17384;SDS011;8810;48.680;8.894;2023-04-24T15:24:15;1.20;;;1.00;;
17384;SDS011;8810;48.680;8.894;2023-04-24T15:26:42;1.10;;;1.00;;
17384;SDS011;8810;48.680;8.894;2023-04-24T15:29:10;4.40;;;1.10;;
17384;SDS011;8810;48.680;8.894;2023-04-24T15:31:37;1.30;;;1.10;;
17384;SDS011;8810;48.680;8.894;2023-04-24T15:34:05;3.00;;;1.50;;
17384;SDS011;8810;48.680;8.894;2023-04-24T15:36:32;1.47;;;1.20;;
17384;SDS011;8810;48.680;8.894;2023-04-24T15:38:59;2.23;;;1.37;;
17384;SDS011;8810;48.680;8.894;2023-04-24T15:41:27;1.73;;;1.23;;
17384;SDS011;8810;48.680;8.894;2023-04-24T15:43:54;2.70;;;1.00;;
17384;SDS011;8810;48.680;8.894;2023-04-24T15:46:22;1.13;;;1.00;;
17384;SDS011;8810;48.680;8.894;2023-04-24T15:48:49;1.20;;;1.07;;
17384;SDS011;8810;48.680;8.894;2023-04-24T15:51:16;2.23;;;1.17;;
17384;SDS011;8810;48.680;8.894;2023-04-24T15:53:43;2.00;;;1.07;;
17384;SDS011;8810;48.680;8.894;2023-04-24T15:56:10;1.90;;;1.17;;
17384;SDS011;8810;48.680;8.894;2023-04-24T15:58:38;1.13;;;0.97;;
17384;SDS011;8810;48.680;8.894;2023-04-24T16:01:05;1.57;;;1.10;;
17384;SDS011;8810;48.680;8.894;2023-04-24T16:03:33;3.67;;;1.53;;
17384;SDS011;8810;48.680;8.894;2023-04-24T16:06:00;1.50;;;1.10;;
17384;SDS011;8810;48.680;8.894;2023-04-24T16:08:27;1.33;;;1.00;;
17384;SDS011;8810;48.680;8.894;2023-04-24T16:10:54;3.07;;;1.10;;
17384;SDS011;8810;48.680;8.894;2023-04-24T16:13:21;2.67;;;1.40;;
17384;SDS011;8810;48.680;8.894;2023-04-24T16:15:48;1.83;;;1.30;;
17384;SDS011;8810;48.680;8.894;2023-04-24T16:18:15;5.63;;;1.13;;
17384;SDS011;8810;48.680;8.894;2023-04-24T16:20:44;1.10;;;0.97;;
17384;SDS011;8810;48.680;8.894;2023-04-24T16:23:11;1.33;;;1.00;;
17384;SDS011;8810;48.680;8.894;2023-04-24T16:25:38;2.20;;;1.10;;
17384;SDS011;8810;48.680;8.894;2023-04-24T16:28:05;3.20;;;1.20;;
17384;SDS011;8810;48.680;8.894;2023-04-24T16:30:32;2.27;;;1.20;;
17384;SDS011;8810;48.680;8.894;2023-04-24T16:33:00;2.27;;;0.90;;